sensor_id;sensor_type;location;lat;lon;timestamp;pressure;altitude;pressure_sealevel;temperature;humidity
23253;BME280;11795;47.054;15.408;2023-04-22T00:00:00;97200;;;10.0;78.9
23253;BME280;11795;47.054;15.408;2023-04-22T00:02:01;97200;;;10.1;78.7
23253;BME280;11795;47.054;15.408;2023-04-22T00:04:00;97200;;;10.0;78.7
23253;BME280;11795;47.054;15.408;2023-04-22T00:06:00;97200;;;9.9;79.1
23253;BME280;11795;47.054;15.408;2023-04-22T00:08:00;97200;;;10.0;78.4
23253;BME280;11795;47.054;15.408;2023-04-22T00:10:00;97200;;;9.9;79.1
23253;BME280;11795;47.054;15.408;2023-04-22T00:12:01;97200;;;9.9;79.1
23253;BME280;11795;47.054;15.408;2023-04-22T00:14:00;97200;;;9.8;79.0
23253;BME280;11795;47.054;15.408;2023-04-22T00:16:00;97200;;;9.7;79.4
23253;BME280;11795;47.054;15.408;2023-04-22T00:18:00;97200;;;9.9;78.7
23253;BME280;11795;47.054;15.408;2023-04-22T00:20:00;97190;;;9.8;79.2
23253;BME280;11795;47.054;15.408;2023-04-22T00:22:00;97190;;;9.8;79.2
23253;BME280;11795;47.054;15.408;2023-04-22T00:24:01;97190;;;9.8;79.1
23253;BME280;11795;47.054;15.408;2023-04-22T00:26:00;97190;;;9.6;79.5
23253;BME280;11795;47.054;15.408;2023-04-22T00:28:00;97180;;;9.8;78.6
23253;BME280;11795;47.054;15.408;2023-04-22T00:30:00;97190;;;9.6;79.0
23253;BME280;11795;47.054;15.408;2023-04-22T00:32:00;97180;;;9.7;79.1
23253;BME280;11795;47.054;15.408;2023-04-22T00:34:00;97180;;;9.6;79.0
23253;BME280;11795;47.054;15.408;2023-04-22T00:36:00;97180;;;9.5;79.5
23253;BME280;11795;47.054;15.408;2023-04-22T00:38:00;97170;;;9.7;78.8
23253;BME280;11795;47.054;15.408;2023-04-22T00:40:00;97180;;;9.5;79.4
23253;BME280;11795;47.054;15.408;2023-04-22T00:42:01;97180;;;9.6;79.5
23253;BME280;11795;47.054;15.408;2023-04-22T00:44:00;97180;;;9.5;79.4
23253;BME280;11795;47.054;15.408;2023-04-22T00:46:01;97180;;;9.4;79.8
23253;BME280;11795;47.054;15.408;2023-04-22T00:48:01;97180;;;9.5;79.3
23253;BME280;11795;47.054;15.408;2023-04-22T00:50:01;97180;;;9.4;79.6
23253;BME280;11795;47.054;15.408;2023-04-22T00:52:00;97180;;;9.5;79.4
23253;BME280;11795;47.054;15.408;2023-04-22T00:54:01;97180;;;9.4;79.1
23253;BME280;11795;47.054;15.408;2023-04-22T00:56:00;97180;;;9.3;79.5
23253;BME280;11795;47.054;15.408;2023-04-22T00:58:02;97180;;;9.4;79.5
23253;BME280;11795;47.054;15.408;2023-04-22T01:00:01;97180;;;9.2;79.9
23253;BME280;11795;47.054;15.408;2023-04-22T01:02:02;97180;;;9.3;79.6
23253;BME280;11795;47.054;15.408;2023-04-22T01:04:02;97180;;;9.2;79.4
23253;BME280;11795;47.054;15.408;2023-04-22T01:06:00;97170;;;9.1;80.2
23253;BME280;11795;47.054;15.408;2023-04-22T01:08:01;97170;;;9.2;79.6
23253;BME280;11795;47.054;15.408;2023-04-22T01:10:01;97170;;;9.0;80.0
23253;BME280;11795;47.054;15.408;2023-04-22T01:12:01;97180;;;9.1;80.0
23253;BME280;11795;47.054;15.408;2023-04-22T01:14:01;97180;;;8.9;80.0
23253;BME280;11795;47.054;15.408;2023-04-22T01:16:01;97180;;;8.7;80.6
23253;BME280;11795;47.054;15.408;2023-04-22T01:18:01;97180;;;8.9;80.1
23253;BME280;11795;47.054;15.408;2023-04-22T01:20:03;97170;;;8.8;80.5
23253;BME280;11795;47.054;15.408;2023-04-22T01:22:02;97180;;;8.8;80.7
23253;BME280;11795;47.054;15.408;2023-04-22T01:24:00;97180;;;8.7;80.5
23253;BME280;11795;47.054;15.408;2023-04-22T01:26:01;97180;;;8.7;80.8
23253;BME280;11795;47.054;15.408;2023-04-22T01:28:01;97180;;;8.8;80.9
23253;BME280;11795;47.054;15.408;2023-04-22T01:30:01;97180;;;8.6;81.4
23253;BME280;11795;47.054;15.408;2023-04-22T01:32:02;97180;;;8.6;81.7
23253;BME280;11795;47.054;15.408;2023-04-22T01:34:01;97180;;;8.6;81.5
23253;BME280;11795;47.054;15.408;2023-04-22T01:36:00;97180;;;8.5;82.0
23253;BME280;11795;47.054;15.408;2023-04-22T01:38:00;97180;;;8.7;81.3
23253;BME280;11795;47.054;15.408;2023-04-22T01:40:01;97180;;;8.5;81.9
23253;BME280;11795;47.054;15.408;2023-04-22T01:42:01;97180;;;8.6;82.0
23253;BME280;11795;47.054;15.408;2023-04-22T01:44:02;97180;;;8.6;81.5
23253;BME280;11795;47.054;15.408;2023-04-22T01:46:01;97180;;;8.5;81.9
23253;BME280;11795;47.054;15.408;2023-04-22T01:48:00;97180;;;8.6;81.4
23253;BME280;11795;47.054;15.408;2023-04-22T01:50:00;97180;;;8.4;81.8
23253;BME280;11795;47.054;15.408;2023-04-22T01:52:00;97180;;;8.4;81.7
23253;BME280;11795;47.054;15.408;2023-04-22T01:54:03;97170;;;8.4;81.3
23253;BME280;11795;47.054;15.408;2023-04-22T01:56:00;97170;;;8.3;81.9
23253;BME280;11795;47.054;15.408;2023-04-22T01:58:00;97170;;;8.5;81.5
23253;BME280;11795;47.054;15.408;2023-04-22T02:00:00;97170;;;8.3;82.1
23253;BME280;11795;47.054;15.408;2023-04-22T02:02:00;97170;;;8.3;82.6
23253;BME280;11795;47.054;15.408;2023-04-22T02:04:00;97170;;;8.4;82.2
23253;BME280;11795;47.054;15.408;2023-04-22T02:06:00;97170;;;8.2;82.6
23253;BME280;11795;47.054;15.408;2023-04-22T02:08:00;97170;;;8.4;82.0
23253;BME280;11795;47.054;15.408;2023-04-22T02:10:01;97170;;;8.3;82.1
23253;BME280;11795;47.054;15.408;2023-04-22T02:12:00;97170;;;8.2;82.5
23253;BME280;11795;47.054;15.408;2023-04-22T02:14:00;97170;;;8.3;82.2
23253;BME280;11795;47.054;15.408;2023-04-22T02:16:00;97170;;;8.2;82.4
23253;BME280;11795;47.054;15.408;2023-04-22T02:18:01;97170;;;8.3;81.8
23253;BME280;11795;47.054;15.408;2023-04-22T02:20:00;97170;;;8.1;82.1
23253;BME280;11795;47.054;15.408;2023-04-22T02:22:01;97170;;;8.1;82.4
23253;BME280;11795;47.054;15.408;2023-04-22T02:24:00;97170;;;8.1;82.2
23253;BME280;11795;47.054;15.408;2023-04-22T02:26:02;97170;;;8.0;82.8
23253;BME280;11795;47.054;15.408;2023-04-22T02:28:00;97160;;;8.1;82.2
23253;BME280;11795;47.054;15.408;2023-04-22T02:30:00;97160;;;8.0;82.6
23253;BME280;11795;47.054;15.408;2023-04-22T02:32:00;97160;;;8.0;82.8
23253;BME280;11795;47.054;15.408;2023-04-22T02:34:00;97170;;;8.0;82.3
23253;BME280;11795;47.054;15.408;2023-04-22T02:36:00;97160;;;7.9;82.7
23253;BME280;11795;47.054;15.408;2023-04-22T02:38:00;97170;;;8.1;82.2
23253;BME280;11795;47.054;15.408;2023-04-22T02:40:00;97170;;;7.9;82.6
23253;BME280;11795;47.054;15.408;2023-04-22T02:42:00;97170;;;7.9;83.0
23253;BME280;11795;47.054;15.408;2023-04-22T02:44:00;97170;;;8.0;82.4
23253;BME280;11795;47.054;15.408;2023-04-22T02:46:00;97170;;;7.9;82.9
23253;BME280;11795;47.054;15.408;2023-04-22T02:48:00;97170;;;8.1;82.4
23253;BME280;11795;47.054;15.408;2023-04-22T02:50:00;97170;;;7.9;83.1
23253;BME280;11795;47.054;15.408;2023-04-22T02:52:00;97170;;;7.8;83.5
23253;BME280;11795;47.054;15.408;2023-04-22T02:54:00;97160;;;8.0;82.7
23253;BME280;11795;47.054;15.408;2023-04-22T02:56:00;97160;;;7.8;83.0
23253;BME280;11795;47.054;15.408;2023-04-22T02:58:00;97170;;;8.0;82.4
23253;BME280;11795;47.054;15.408;2023-04-22T03:00:01;97160;;;7.8;82.8
23253;BME280;11795;47.054;15.408;2023-04-22T03:02:00;97170;;;7.7;83.1
23253;BME280;11795;47.054;15.408;2023-04-22T03:04:00;97160;;;7.7;82.5
23253;BME280;11795;47.054;15.408;2023-04-22T03:06:00;97160;;;7.6;83.0
23253;BME280;11795;47.054;15.408;2023-04-22T03:08:00;97160;;;7.8;82.6
23253;BME280;11795;47.054;15.408;2023-04-22T03:10:00;97160;;;7.6;83.0
23253;BME280;11795;47.054;15.408;2023-04-22T03:12:01;97160;;;7.5;83.6
23253;BME280;11795;47.054;15.408;2023-04-22T03:14:00;97160;;;7.7;82.7
23253;BME280;11795;47.054;15.408;2023-04-22T03:16:00;97160;;;7.6;83.0
23253;BME280;11795;47.054;15.408;2023-04-22T03:18:00;97160;;;7.8;82.6
23253;BME280;11795;47.054;15.408;2023-04-22T03:20:00;97160;;;7.5;83.2
23253;BME280;11795;47.054;15.408;2023-04-22T03:22:00;97170;;;7.4;83.8
23253;BME280;11795;47.054;15.408;2023-04-22T03:24:00;97160;;;7.5;83.5
23253;BME280;11795;47.054;15.408;2023-04-22T03:26:00;97170;;;7.4;84.1
23253;BME280;11795;47.054;15.408;2023-04-22T03:28:00;97160;;;7.6;83.6
23253;BME280;11795;47.054;15.408;2023-04-22T03:30:01;97160;;;7.5;83.9
23253;BME280;11795;47.054;15.408;2023-04-22T03:32:00;97170;;;7.4;84.3
23253;BME280;11795;47.054;15.408;2023-04-22T03:34:00;97160;;;7.5;84.0
23253;BME280;11795;47.054;15.408;2023-04-22T03:36:00;97160;;;7.4;84.5
23253;BME280;11795;47.054;15.408;2023-04-22T03:38:00;97160;;;7.6;83.9
23253;BME280;11795;47.054;15.408;2023-04-22T03:40:00;97160;;;7.4;84.1
23253;BME280;11795;47.054;15.408;2023-04-22T03:42:03;97160;;;7.4;84.2
23253;BME280;11795;47.054;15.408;2023-04-22T03:44:00;97160;;;7.5;83.5
23253;BME280;11795;47.054;15.408;2023-04-22T03:46:00;97170;;;7.3;84.1
23253;BME280;11795;47.054;15.408;2023-04-22T03:48:00;97160;;;7.5;83.2
23253;BME280;11795;47.054;15.408;2023-04-22T03:50:00;97170;;;7.3;83.5
23253;BME280;11795;47.054;15.408;2023-04-22T03:52:00;97170;;;7.2;84.1
23253;BME280;11795;47.054;15.408;2023-04-22T03:54:00;97170;;;7.3;83.6
23253;BME280;11795;47.054;15.408;2023-04-22T03:56:00;97170;;;7.1;84.2
23253;BME280;11795;47.054;15.408;2023-04-22T03:58:00;97170;;;7.4;83.8
23253;BME280;11795;47.054;15.408;2023-04-22T04:00:00;97170;;;7.2;84.0
23253;BME280;11795;47.054;15.408;2023-04-22T04:02:00;97170;;;7.1;84.5
23253;BME280;11795;47.054;15.408;2023-04-22T04:04:01;97170;;;7.2;84.2
23253;BME280;11795;47.054;15.408;2023-04-22T04:06:00;97170;;;7.1;84.6
23253;BME280;11795;47.054;15.408;2023-04-22T04:08:00;97170;;;7.4;84.1
23253;BME280;11795;47.054;15.408;2023-04-22T04:10:00;97170;;;7.2;84.3
23253;BME280;11795;47.054;15.408;2023-04-22T04:12:02;97170;;;7.2;84.4
23253;BME280;11795;47.054;15.408;2023-04-22T04:14:00;97170;;;7.3;83.6
23253;BME280;11795;47.054;15.408;2023-04-22T04:16:00;97170;;;7.1;84.1
23253;BME280;11795;47.054;15.408;2023-04-22T04:18:02;97170;;;7.2;83.5
23253;BME280;11795;47.054;15.408;2023-04-22T04:20:00;97180;;;7.1;83.9
23253;BME280;11795;47.054;15.408;2023-04-22T04:22:01;97170;;;7.1;84.1
23253;BME280;11795;47.054;15.408;2023-04-22T04:24:01;97170;;;7.2;83.2
23253;BME280;11795;47.054;15.408;2023-04-22T04:26:02;97180;;;7.0;83.7
23253;BME280;11795;47.054;15.408;2023-04-22T04:28:00;97180;;;7.2;83.3
23253;BME280;11795;47.054;15.408;2023-04-22T04:30:04;97180;;;7.1;83.7
23253;BME280;11795;47.054;15.408;2023-04-22T04:32:00;97190;;;7.0;84.3
23253;BME280;11795;47.054;15.408;2023-04-22T04:34:00;97180;;;7.2;83.7
23253;BME280;11795;47.054;15.408;2023-04-22T04:36:00;97180;;;7.1;84.2
23253;BME280;11795;47.054;15.408;2023-04-22T04:38:01;97180;;;7.4;83.7
23253;BME280;11795;47.054;15.408;2023-04-22T04:40:01;97190;;;7.3;83.6
23253;BME280;11795;47.054;15.408;2023-04-22T04:42:00;97190;;;7.4;83.7
23253;BME280;11795;47.054;15.408;2023-04-22T04:44:00;97190;;;7.5;83.2
23253;BME280;11795;47.054;15.408;2023-04-22T04:46:00;97190;;;7.4;83.8
23253;BME280;11795;47.054;15.408;2023-04-22T04:48:01;97190;;;7.6;83.4
23253;BME280;11795;47.054;15.408;2023-04-22T04:50:00;97190;;;7.5;83.3
23253;BME280;11795;47.054;15.408;2023-04-22T04:52:00;97200;;;7.5;83.6
23253;BME280;11795;47.054;15.408;2023-04-22T04:54:00;97200;;;7.6;83.4
23253;BME280;11795;47.054;15.408;2023-04-22T04:56:00;97200;;;7.6;83.8
23253;BME280;11795;47.054;15.408;2023-04-22T04:58:00;97190;;;7.8;83.3
23253;BME280;11795;47.054;15.408;2023-04-22T05:00:02;97190;;;7.7;83.6
23253;BME280;11795;47.054;15.408;2023-04-22T05:02:00;97200;;;7.6;84.0
23253;BME280;11795;47.054;15.408;2023-04-22T05:04:00;97190;;;7.8;83.4
23253;BME280;11795;47.054;15.408;2023-04-22T05:06:01;97200;;;7.7;83.9
23253;BME280;11795;47.054;15.408;2023-04-22T05:08:02;97200;;;8.0;83.5
23253;BME280;11795;47.054;15.408;2023-04-22T05:10:01;97200;;;7.9;83.7
23253;BME280;11795;47.054;15.408;2023-04-22T05:12:00;97200;;;7.9;84.1
23253;BME280;11795;47.054;15.408;2023-04-22T05:14:01;97200;;;8.1;83.6
23253;BME280;11795;47.054;15.408;2023-04-22T05:16:00;97200;;;8.1;84.2
23253;BME280;11795;47.054;15.408;2023-04-22T05:18:00;97200;;;8.3;83.7
23253;BME280;11795;47.054;15.408;2023-04-22T05:20:00;97200;;;8.2;84.6
23253;BME280;11795;47.054;15.408;2023-04-22T05:22:00;97200;;;8.2;85.7
23253;BME280;11795;47.054;15.408;2023-04-22T05:24:00;97200;;;8.5;84.7
23253;BME280;11795;47.054;15.408;2023-04-22T05:26:00;97200;;;8.5;85.6
23253;BME280;11795;47.054;15.408;2023-04-22T05:28:00;97200;;;8.9;83.9
23253;BME280;11795;47.054;15.408;2023-04-22T05:30:00;97200;;;8.9;84.6
23253;BME280;11795;47.054;15.408;2023-04-22T05:32:01;97190;;;9.0;84.6
23253;BME280;11795;47.054;15.408;2023-04-22T05:34:00;97190;;;9.2;83.7
23253;BME280;11795;47.054;15.408;2023-04-22T05:36:00;97190;;;9.3;84.1
23253;BME280;11795;47.054;15.408;2023-04-22T05:38:00;97190;;;9.6;82.5
23253;BME280;11795;47.054;15.408;2023-04-22T05:40:00;97190;;;9.7;82.4
23253;BME280;11795;47.054;15.408;2023-04-22T05:42:01;97190;;;9.9;80.9
23253;BME280;11795;47.054;15.408;2023-04-22T05:44:00;97200;;;10.2;80.3
23253;BME280;11795;47.054;15.408;2023-04-22T05:46:00;97200;;;10.3;79.9
23253;BME280;11795;47.054;15.408;2023-04-22T05:48:00;97200;;;10.7;78.6
23253;BME280;11795;47.054;15.408;2023-04-22T05:50:00;97200;;;10.8;77.7
23253;BME280;11795;47.054;15.408;2023-04-22T05:52:00;97200;;;10.9;77.3
23253;BME280;11795;47.054;15.408;2023-04-22T05:54:00;97200;;;11.2;76.6
23253;BME280;11795;47.054;15.408;2023-04-22T05:56:00;97190;;;11.1;75.5
23253;BME280;11795;47.054;15.408;2023-04-22T05:58:00;97200;;;11.4;75.2
23253;BME280;11795;47.054;15.408;2023-04-22T06:00:02;97190;;;11.5;74.9
23253;BME280;11795;47.054;15.408;2023-04-22T06:02:00;97190;;;11.6;73.5
23253;BME280;11795;47.054;15.408;2023-04-22T06:04:00;97190;;;11.9;73.2
23253;BME280;11795;47.054;15.408;2023-04-22T06:06:00;97190;;;12.1;73.6
23253;BME280;11795;47.054;15.408;2023-04-22T06:08:00;97190;;;12.4;72.1
23253;BME280;11795;47.054;15.408;2023-04-22T06:10:00;97190;;;12.5;71.7
23253;BME280;11795;47.054;15.408;2023-04-22T06:12:01;97190;;;12.6;70.8
23253;BME280;11795;47.054;15.408;2023-04-22T06:14:00;97190;;;12.9;70.1
23253;BME280;11795;47.054;15.408;2023-04-22T06:16:00;97190;;;13.0;70.0
23253;BME280;11795;47.054;15.408;2023-04-22T06:18:00;97190;;;13.2;68.5
23253;BME280;11795;47.054;15.408;2023-04-22T06:20:00;97190;;;13.3;68.6
23253;BME280;11795;47.054;15.408;2023-04-22T06:22:00;97190;;;13.2;66.6
23253;BME280;11795;47.054;15.408;2023-04-22T06:24:00;97190;;;13.4;65.9
23253;BME280;11795;47.054;15.408;2023-04-22T06:26:00;97190;;;13.4;66.6
23253;BME280;11795;47.054;15.408;2023-04-22T06:28:00;97190;;;13.6;65.5
23253;BME280;11795;47.054;15.408;2023-04-22T06:30:00;97190;;;13.6;65.4
23253;BME280;11795;47.054;15.408;2023-04-22T06:32:00;97190;;;13.7;66.1
23253;BME280;11795;47.054;15.408;2023-04-22T06:34:00;97190;;;14.0;64.5
23253;BME280;11795;47.054;15.408;2023-04-22T06:36:00;97190;;;14.0;64.0
23253;BME280;11795;47.054;15.408;2023-04-22T06:38:00;97190;;;14.3;63.2
23253;BME280;11795;47.054;15.408;2023-04-22T06:40:00;97190;;;14.3;62.3
23253;BME280;11795;47.054;15.408;2023-04-22T06:42:00;97200;;;14.3;62.3
23253;BME280;11795;47.054;15.408;2023-04-22T06:44:00;97190;;;14.5;61.6
23253;BME280;11795;47.054;15.408;2023-04-22T06:46:01;97190;;;14.4;60.9
23253;BME280;11795;47.054;15.408;2023-04-22T06:48:00;97190;;;14.6;60.7
23253;BME280;11795;47.054;15.408;2023-04-22T06:50:01;97190;;;14.6;61.0
23253;BME280;11795;47.054;15.408;2023-04-22T06:52:01;97200;;;14.6;60.3
23253;BME280;11795;47.054;15.408;2023-04-22T06:54:00;97190;;;14.8;60.0
23253;BME280;11795;47.054;15.408;2023-04-22T06:56:00;97190;;;14.8;60.2
23253;BME280;11795;47.054;15.408;2023-04-22T06:58:01;97200;;;15.0;60.1
23253;BME280;11795;47.054;15.408;2023-04-22T07:00:01;97200;;;15.1;59.9
23253;BME280;11795;47.054;15.408;2023-04-22T07:02:00;97190;;;15.2;60.6
23253;BME280;11795;47.054;15.408;2023-04-22T07:04:00;97190;;;15.6;59.2
23253;BME280;11795;47.054;15.408;2023-04-22T07:06:00;97190;;;15.7;58.5
23253;BME280;11795;47.054;15.408;2023-04-22T07:08:00;97180;;;15.9;57.2
23253;BME280;11795;47.054;15.408;2023-04-22T07:10:00;97180;;;15.6;57.0
23253;BME280;11795;47.054;15.408;2023-04-22T07:12:00;97180;;;15.6;57.6
23253;BME280;11795;47.054;15.408;2023-04-22T07:14:00;97180;;;16.0;57.2
23253;BME280;11795;47.054;15.408;2023-04-22T07:16:00;97180;;;16.1;56.3
23253;BME280;11795;47.054;15.408;2023-04-22T07:18:00;97180;;;16.4;56.3
23253;BME280;11795;47.054;15.408;2023-04-22T07:20:00;97170;;;16.5;56.2
23253;BME280;11795;47.054;15.408;2023-04-22T07:22:02;97170;;;16.7;55.7
23253;BME280;11795;47.054;15.408;2023-04-22T07:24:00;97160;;;17.0;55.0
23253;BME280;11795;47.054;15.408;2023-04-22T07:26:01;97170;;;17.0;54.8
23253;BME280;11795;47.054;15.408;2023-04-22T07:28:00;97170;;;17.2;54.1
23253;BME280;11795;47.054;15.408;2023-04-22T07:30:00;97170;;;17.2;53.2
23253;BME280;11795;47.054;15.408;2023-04-22T07:32:00;97170;;;17.1;53.1
23253;BME280;11795;47.054;15.408;2023-04-22T07:34:01;97170;;;17.1;52.4
23253;BME280;11795;47.054;15.408;2023-04-22T07:36:00;97170;;;17.2;53.0
23253;BME280;11795;47.054;15.408;2023-04-22T07:38:00;97160;;;17.5;52.4
23253;BME280;11795;47.054;15.408;2023-04-22T07:40:00;97170;;;17.5;52.3
23253;BME280;11795;47.054;15.408;2023-04-22T07:42:01;97160;;;17.6;51.8
23253;BME280;11795;47.054;15.408;2023-04-22T07:44:00;97170;;;18.0;51.9
23253;BME280;11795;47.054;15.408;2023-04-22T07:46:00;97160;;;18.1;52.1
23253;BME280;11795;47.054;15.408;2023-04-22T07:48:00;97160;;;18.3;50.5
23253;BME280;11795;47.054;15.408;2023-04-22T07:50:00;97160;;;18.2;49.8
23253;BME280;11795;47.054;15.408;2023-04-22T07:52:00;97160;;;18.2;50.4
23253;BME280;11795;47.054;15.408;2023-04-22T07:54:00;97160;;;18.5;50.1
23253;BME280;11795;47.054;15.408;2023-04-22T07:56:01;97160;;;18.5;49.5
23253;BME280;11795;47.054;15.408;2023-04-22T07:58:05;97160;;;18.4;49.1
23253;BME280;11795;47.054;15.408;2023-04-22T08:00:01;97160;;;18.7;49.5
23253;BME280;11795;47.054;15.408;2023-04-22T08:02:00;97160;;;18.9;49.6
23253;BME280;11795;47.054;15.408;2023-04-22T08:04:00;97160;;;18.5;48.2
23253;BME280;11795;47.054;15.408;2023-04-22T08:06:00;97160;;;18.4;48.6
23253;BME280;11795;47.054;15.408;2023-04-22T08:08:00;97160;;;18.5;48.9
23253;BME280;11795;47.054;15.408;2023-04-22T08:10:00;97160;;;18.5;48.5
23253;BME280;11795;47.054;15.408;2023-04-22T08:12:01;97160;;;18.5;48.8
23253;BME280;11795;47.054;15.408;2023-04-22T08:14:00;97160;;;18.7;47.9
23253;BME280;11795;47.054;15.408;2023-04-22T08:16:02;97160;;;18.6;48.3
23253;BME280;11795;47.054;15.408;2023-04-22T08:18:00;97150;;;18.7;47.2
23253;BME280;11795;47.054;15.408;2023-04-22T08:20:00;97160;;;18.6;48.4
23253;BME280;11795;47.054;15.408;2023-04-22T08:22:00;97160;;;18.5;47.9
23253;BME280;11795;47.054;15.408;2023-04-22T08:24:00;97160;;;18.5;47.6
23253;BME280;11795;47.054;15.408;2023-04-22T08:26:01;97160;;;18.5;46.9
23253;BME280;11795;47.054;15.408;2023-04-22T08:28:00;97160;;;18.5;47.6
23253;BME280;11795;47.054;15.408;2023-04-22T08:30:00;97150;;;18.5;46.9
23253;BME280;11795;47.054;15.408;2023-04-22T08:32:01;97150;;;18.7;47.0
23253;BME280;11795;47.054;15.408;2023-04-22T08:34:00;97150;;;18.8;46.0
23253;BME280;11795;47.054;15.408;2023-04-22T08:36:02;97150;;;18.6;45.6
23253;BME280;11795;47.054;15.408;2023-04-22T08:38:01;97150;;;18.7;46.6
23253;BME280;11795;47.054;15.408;2023-04-22T08:40:01;97150;;;19.0;47.0
23253;BME280;11795;47.054;15.408;2023-04-22T08:42:01;97150;;;19.1;45.5
23253;BME280;11795;47.054;15.408;2023-04-22T08:44:01;97140;;;19.5;45.7
23253;BME280;11795;47.054;15.408;2023-04-22T08:46:01;97140;;;19.5;44.7
23253;BME280;11795;47.054;15.408;2023-04-22T08:48:01;97140;;;19.6;45.7
23253;BME280;11795;47.054;15.408;2023-04-22T08:50:01;97150;;;19.8;45.6
23253;BME280;11795;47.054;15.408;2023-04-22T08:52:00;97150;;;19.9;45.8
23253;BME280;11795;47.054;15.408;2023-04-22T08:54:00;97140;;;19.7;44.7
23253;BME280;11795;47.054;15.408;2023-04-22T08:56:00;97150;;;19.4;45.3
23253;BME280;11795;47.054;15.408;2023-04-22T08:58:03;97140;;;19.3;46.1
23253;BME280;11795;47.054;15.408;2023-04-22T09:00:01;97140;;;19.6;46.8
23253;BME280;11795;47.054;15.408;2023-04-22T09:02:01;97140;;;19.6;46.4
23253;BME280;11795;47.054;15.408;2023-04-22T09:04:01;97140;;;19.9;45.4
23253;BME280;11795;47.054;15.408;2023-04-22T09:06:02;97140;;;20.0;45.9
23253;BME280;11795;47.054;15.408;2023-04-22T09:08:01;97140;;;20.1;45.0
23253;BME280;11795;47.054;15.408;2023-04-22T09:10:00;97140;;;19.8;44.3
23253;BME280;11795;47.054;15.408;2023-04-22T09:12:00;97140;;;19.7;44.8
23253;BME280;11795;47.054;15.408;2023-04-22T09:14:02;97140;;;19.5;45.1
23253;BME280;11795;47.054;15.408;2023-04-22T09:16:00;97140;;;19.2;46.0
23253;BME280;11795;47.054;15.408;2023-04-22T09:18:01;97140;;;19.2;46.4
23253;BME280;11795;47.054;15.408;2023-04-22T09:20:02;97140;;;19.5;46.4
23253;BME280;11795;47.054;15.408;2023-04-22T09:22:00;97140;;;19.6;46.1
23253;BME280;11795;47.054;15.408;2023-04-22T09:24:02;97140;;;19.8;45.6
23253;BME280;11795;47.054;15.408;2023-04-22T09:26:00;97140;;;19.9;46.3
23253;BME280;11795;47.054;15.408;2023-04-22T09:28:01;97140;;;19.5;45.8
23253;BME280;11795;47.054;15.408;2023-04-22T09:30:02;97130;;;19.8;45.0
23253;BME280;11795;47.054;15.408;2023-04-22T09:32:07;97130;;;20.0;44.9
23253;BME280;11795;47.054;15.408;2023-04-22T09:34:00;97130;;;20.3;44.4
23253;BME280;11795;47.054;15.408;2023-04-22T09:36:07;97130;;;20.0;44.1
23253;BME280;11795;47.054;15.408;2023-04-22T09:38:02;97120;;;20.3;44.1
23253;BME280;11795;47.054;15.408;2023-04-22T09:40:00;97130;;;20.0;44.7
23253;BME280;11795;47.054;15.408;2023-04-22T09:42:00;97120;;;20.0;44.9
23253;BME280;11795;47.054;15.408;2023-04-22T09:44:02;97120;;;20.3;44.8
23253;BME280;11795;47.054;15.408;2023-04-22T09:46:00;97120;;;20.2;45.1
23253;BME280;11795;47.054;15.408;2023-04-22T09:48:02;97120;;;19.9;45.3
23253;BME280;11795;47.054;15.408;2023-04-22T09:50:03;97110;;;20.3;45.8
23253;BME280;11795;47.054;15.408;2023-04-22T09:52:00;97110;;;19.5;45.6
23253;BME280;11795;47.054;15.408;2023-04-22T09:54:02;97110;;;19.9;44.6
23253;BME280;11795;47.054;15.408;2023-04-22T09:56:03;97110;;;20.0;44.9
23253;BME280;11795;47.054;15.408;2023-04-22T09:58:05;97110;;;20.3;44.4
23253;BME280;11795;47.054;15.408;2023-04-22T10:00:02;97100;;;20.5;43.4
23253;BME280;11795;47.054;15.408;2023-04-22T10:02:03;97100;;;20.4;44.6
23253;BME280;11795;47.054;15.408;2023-04-22T10:04:00;97090;;;20.6;43.9
23253;BME280;11795;47.054;15.408;2023-04-22T10:06:00;97100;;;20.5;43.6
23253;BME280;11795;47.054;15.408;2023-04-22T10:08:01;97090;;;20.6;43.5
23253;BME280;11795;47.054;15.408;2023-04-22T10:10:01;97100;;;20.9;42.9
23253;BME280;11795;47.054;15.408;2023-04-22T10:12:01;97090;;;20.7;41.6
23253;BME280;11795;47.054;15.408;2023-04-22T10:14:00;97090;;;20.9;42.3
23253;BME280;11795;47.054;15.408;2023-04-22T10:16:01;97080;;;20.8;43.0
23253;BME280;11795;47.054;15.408;2023-04-22T10:18:02;97090;;;20.8;42.6
23253;BME280;11795;47.054;15.408;2023-04-22T10:20:06;97090;;;20.8;41.9
23253;BME280;11795;47.054;15.408;2023-04-22T10:22:02;97090;;;20.7;42.8
23253;BME280;11795;47.054;15.408;2023-04-22T10:24:00;97080;;;20.8;42.9
23253;BME280;11795;47.054;15.408;2023-04-22T10:26:00;97090;;;20.8;42.3
23253;BME280;11795;47.054;15.408;2023-04-22T10:28:01;97080;;;20.8;43.1
23253;BME280;11795;47.054;15.408;2023-04-22T10:30:00;97090;;;21.0;43.4
23253;BME280;11795;47.054;15.408;2023-04-22T10:32:04;97080;;;20.9;43.6
23253;BME280;11795;47.054;15.408;2023-04-22T10:34:08;97080;;;21.3;43.6
23253;BME280;11795;47.054;15.408;2023-04-22T10:36:10;97070;;;21.2;42.4
23253;BME280;11795;47.054;15.408;2023-04-22T10:38:06;97070;;;21.5;42.2
23253;BME280;11795;47.054;15.408;2023-04-22T10:40:06;97070;;;21.8;42.3
23253;BME280;11795;47.054;15.408;2023-04-22T10:42:07;97070;;;21.8;42.6
23253;BME280;11795;47.054;15.408;2023-04-22T10:44:05;97070;;;21.9;41.7
23253;BME280;11795;47.054;15.408;2023-04-22T10:46:00;97070;;;21.9;41.1
23253;BME280;11795;47.054;15.408;2023-04-22T10:48:02;97070;;;21.6;41.4
23253;BME280;11795;47.054;15.408;2023-04-22T10:50:11;97070;;;21.5;42.3
23253;BME280;11795;47.054;15.408;2023-04-22T10:52:05;97070;;;21.6;42.4
23253;BME280;11795;47.054;15.408;2023-04-22T10:54:01;97060;;;21.9;40.8
23253;BME280;11795;47.054;15.408;2023-04-22T10:56:15;97060;;;21.9;40.8
23253;BME280;11795;47.054;15.408;2023-04-22T10:58:00;97060;;;21.8;40.4
23253;BME280;11795;47.054;15.408;2023-04-22T11:00:19;97060;;;21.8;41.2
23253;BME280;11795;47.054;15.408;2023-04-22T11:02:00;97060;;;21.9;41.7
23253;BME280;11795;47.054;15.408;2023-04-22T11:04:18;97060;;;22.1;40.3
23253;BME280;11795;47.054;15.408;2023-04-22T11:06:12;97060;;;22.0;41.0
23253;BME280;11795;47.054;15.408;2023-04-22T11:08:02;97050;;;22.1;40.5
23253;BME280;11795;47.054;15.408;2023-04-22T11:10:08;97050;;;22.1;40.0
23253;BME280;11795;47.054;15.408;2023-04-22T11:14:00;97060;;;21.9;39.2
23253;BME280;11795;47.054;15.408;2023-04-22T11:16:01;97050;;;21.9;40.2